Edisto Island, SC

5:04 AM EDT on October 01, 2016 (GMT -0400)
Sandy Creek | | Change Station

Elev 20 ft 32.54 °N, 80.33 °W | Updated 2 seconds ago

Scattered Clouds
Scattered Clouds
66.5 °F
Feels Like 66.5 °F
N
3.0
Wind Variable Wind from NNW
Gusts 4.0 mph

Today
High -- | Low -- °F
--% Chance of Precip.
Yesterday
High -- | Low -- °F
Precip. -- in
Pressure 30.02 in
Visibility 7.0 miles
Clouds Scattered Clouds 6000 ft
Dew Point 60 °F
Humidity 79%
Rainfall 0.00 in
Snow Depth Not available.
7:15 AM 7:05 PM
New Moon, 0% visible
METAR KARW 010855Z AUTO 33004KT 7SM SCT060 19/13 A3002 RMK AO2 LTG DSNT E AND SE
Pressure 30.02 in
Visibility 7.0 miles
Clouds Scattered Clouds 6000 ft
Dew Point 60 °F
Humidity 79%
Rainfall 0.00 in
Snow Depth Not available.
7:15 AM 7:05 PM
New Moon, 0% visible
METAR KARW 010855Z AUTO 33004KT 7SM SCT060 19/13 A3002 RMK AO2 LTG DSNT E AND SE

10-Day Weather Forecast

Almanac

Astronomy

Oct. 01, 2016 Rise Set
Actual Time
Civil Twilight
Nautical Twilight
Astronomical Twilight
Moon
Length of Visible Light
Length of Day
Tomorrow will be .
, % of the Moon is Illuminated

Today's Extremes

State Highs State Lows

Community

WunderPhotos

Upload Photos

1,942,898 photos uploaded!

WunderBlog® & News

Nearby

Air Quality

  Air Quality AQ Index Pollutant
Not available.

Snow Depth

Station Depth Elevation

Earthquake Activity

City Distance Mag. Time & Date
Minimum magnitude displayed is 2.5.

Coastal Water Temperatures

Place Temperature

Stations

Nearby Weather Stations

Station Location Temp. Windchill Dew Point Humidity Wind Precip. Elev Updated Type
                   

Watches & Warnings

There are currently no watches in effect.